Terminal Aerodrome Forecast
Issued by NWS Memphis, TN

Home | Current Version | Previous Version | Text Only | Print | Product List | Glossary On
Versions: 1 2 3 4 5 6 7 8 9 10 11 12 13 14 15
000
FTUS44 KMEG 242100 AAA
TAFMKL
TAF AMD
KMKL 242147Z 2422/2518 18012G18KT P6SM SCT050 BKN250
     FM242300 19013G23KT P6SM VCTS BKN040CB OVC150
      TEMPO 2500/2502 3SM TSRA OVC029CB
     FM250400 24014G22KT P6SM OVC025
     FM251300 30010KT P6SM SCT035
     FM251500 32012KT P6SM SKC=

USA.gov is the U.S. government's official web portal to all federal, state and local government web resources and services.